Blandford, Massachusetts
Current Conditions -  °F | °C
As of 7:53 PM on Monday 26 Jan 2015 (Local Time) from KBAF Reporting Station
Light Snow Light Snow  
Wind Chill:   Ceiling: 1500
Heat Index: 20°   Visibility: 1.2mi
Dew Point: 15°   Wind: 16mph
Humidity: 81%   Direction: 20°NNE
Pressure: 29.97"   Gusts: 24mph
Location:  42.18°N, 72.93°W
Report Text: KBAF 270053Z 02014G21KT 1 1/4SM -SN OVC015 M07/M09 A2997 RMK AO2 SLP159 P0000 T10671094
Loading
Personal Weather Stations






























Interactive Weather Map New forecast layout! Learn more

10-Day Weather Forecast

Advertisements
Track Severe Weather on mobile